Time;durP1;ratioP1;P1;durP2;ratioP2;P2;SDS_P1;SDS_P2;PMS_P1;PMS_P2;Temp;Humidity;BMP_temperature;BMP_pressure;BME280_temperature;BME280_humidity;BME280_pressure;Samples;Min_cycle;Max_cycle;Signal;HPM_P1;HPM_P2
2021/06/24 00:01:44;;;;;;;4.30;3.05;;;21.30;59.90;;;;;;10423167;28;20108;-51
2021/06/24 00:06:44;;;;;;;4.60;2.72;;;21.30;59.90;;;;;;10417218;28;20478;-51
2021/06/24 00:11:45;;;;;;;2.95;2.35;;;21.30;59.90;;;;;;10417011;28;20082;-52
2021/06/24 00:16:46;;;;;;;2.70;2.30;;;21.30;59.90;;;;;;10416645;28;20111;-54
2021/06/24 00:21:46;;;;;;;3.60;2.40;;;21.30;59.90;;;;;;10415456;28;20104;-52
2021/06/24 00:26:47;;;;;;;3.33;3.03;;;21.30;59.90;;;;;;10416419;28;20112;-53
2021/06/24 00:31:48;;;;;;;2.60;2.30;;;21.30;59.90;;;;;;10416035;28;20037;-54
2021/06/24 00:36:48;;;;;;;3.50;2.45;;;21.30;59.90;;;;;;10416052;28;20134;-52
2021/06/24 00:41:51;;;;;;;5.78;2.15;;;21.30;59.90;;;;;;10431067;28;20120;-53
2021/06/24 00:46:52;;;;;;;2.22;2.03;;;21.30;59.90;;;;;;10415603;28;20474;-53
2021/06/24 00:51:53;;;;;;;3.10;2.35;;;21.30;59.90;;;;;;10415388;28;20076;-52
2021/06/24 00:56:53;;;;;;;4.63;2.80;;;21.30;59.90;;;;;;10418411;28;20048;-52
2021/06/24 01:01:54;;;;;;;2.80;2.08;;;21.30;60.00;;;;;;10419935;28;20040;-51
2021/06/24 01:06:55;;;;;;;2.72;2.45;;;21.30;59.90;;;;;;10414974;28;20067;-49
2021/06/24 01:11:56;;;;;;;3.63;2.35;;;21.30;59.90;;;;;;10414657;28;20037;-51
2021/06/24 01:16:56;;;;;;;2.25;1.90;;;21.30;60.50;;;;;;10414539;28;20441;-52
2021/06/24 01:21:59;;;;;;;3.35;2.40;;;21.30;59.90;;;;;;10414337;28;20029;-52
2021/06/24 01:26:59;;;;;;;2.55;2.28;;;21.30;59.90;;;;;;10414255;28;20104;-52
2021/06/24 01:32:00;;;;;;;2.72;2.50;;;21.30;59.90;;;;;;10413549;28;20025;-52
2021/06/24 01:37:01;;;;;;;4.07;2.50;;;21.20;59.80;;;;;;10413935;28;20064;-52
2021/06/24 01:42:02;;;;;;;2.55;2.35;;;21.20;59.80;;;;;;10413788;28;20033;-52
2021/06/24 01:47:07;;;;;;;3.00;2.28;;;21.30;59.80;;;;;;10414672;28;20366;-52
2021/06/24 01:52:07;;;;;;;3.50;2.30;;;21.30;59.80;;;;;;10413405;28;20053;-51
2021/06/24 01:57:17;;;;;;;3.85;2.08;;;21.20;59.80;;;;;;10418815;28;20091;-52
2021/06/24 02:02:17;;;;;;;4.05;2.53;;;21.20;59.80;;;;;;10415924;28;20090;-52
2021/06/24 02:07:18;;;;;;;2.45;2.20;;;21.20;59.80;;;;;;10413491;28;20547;-53
2021/06/24 02:12:19;;;;;;;2.30;1.98;;;21.20;59.80;;;;;;10413330;28;20056;-52
2021/06/24 02:17:19;;;;;;;6.18;2.50;;;21.20;59.80;;;;;;10413028;28;20034;-51
2021/06/24 02:22:20;;;;;;;2.50;2.30;;;21.20;59.80;;;;;;10413057;28;20065;-51
2021/06/24 02:27:21;;;;;;;2.47;2.05;;;21.20;59.80;;;;;;10413500;28;20074;-54
2021/06/24 02:32:21;;;;;;;2.53;2.05;;;21.20;59.70;;;;;;10412837;28;20108;-52
2021/06/24 02:37:22;;;;;;;3.03;2.22;;;21.20;59.80;;;;;;10412798;28;20067;-53
2021/06/24 02:42:23;;;;;;;3.25;2.30;;;21.20;59.80;;;;;;10418279;28;20473;-53
2021/06/24 02:47:23;;;;;;;3.75;2.50;;;21.20;59.70;;;;;;10420311;28;20592;-52
2021/06/24 02:52:25;;;;;;;3.83;2.33;;;21.10;59.60;;;;;;10406876;28;20124;-52
2021/06/24 02:57:26;;;;;;;3.45;1.90;;;21.20;59.60;;;;;;10427557;28;20051;-53
2021/06/24 03:02:27;;;;;;;2.90;2.30;;;21.20;59.70;;;;;;10420286;28;20064;-52
2021/06/24 03:07:28;;;;;;;2.35;2.08;;;21.20;59.60;;;;;;10419428;28;20484;-50
2021/06/24 03:12:28;;;;;;;4.00;2.63;;;21.20;59.60;;;;;;10419418;28;20057;-53
2021/06/24 03:17:29;;;;;;;3.78;2.58;;;21.10;59.60;;;;;;10419147;28;20060;-53
2021/06/24 03:22:30;;;;;;;2.83;2.15;;;21.20;59.70;;;;;;10418683;28;20026;-52
2021/06/24 03:27:31;;;;;;;2.88;2.40;;;21.10;59.60;;;;;;10418529;28;20037;-53
2021/06/24 03:32:31;;;;;;;2.30;2.05;;;21.10;59.60;;;;;;10417660;28;20532;-49
2021/06/24 03:37:32;;;;;;;3.47;2.83;;;21.10;59.60;;;;;;10415276;28;20033;-52
2021/06/24 03:42:33;;;;;;;2.90;2.10;;;21.10;59.60;;;;;;10418723;28;20068;-54
2021/06/24 03:47:34;;;;;;;2.85;2.20;;;21.10;59.50;;;;;;10418523;28;20033;-52
2021/06/24 03:52:35;;;;;;;3.05;2.05;;;21.10;59.50;;;;;;10404298;28;20053;-53
2021/06/24 03:57:35;;;;;;;3.53;2.33;;;21.10;59.50;;;;;;10426499;28;20104;-53
2021/06/24 04:02:36;;;;;;;1.98;1.67;;;21.10;59.50;;;;;;10433073;28;20116;-51
2021/06/24 04:07:37;;;;;;;3.75;2.17;;;21.10;59.60;;;;;;10417793;28;20056;-53
2021/06/24 04:12:37;;;;;;;2.90;2.30;;;21.10;59.50;;;;;;10417462;28;20057;-51
2021/06/24 04:17:38;;;;;;;2.63;2.10;;;21.10;59.60;;;;;;10417126;28;20113;-53
2021/06/24 04:22:39;;;;;;;3.97;2.45;;;21.10;59.60;;;;;;10417008;28;20105;-53
2021/06/24 04:27:40;;;;;;;3.20;2.05;;;21.10;59.60;;;;;;10416956;28;20030;-53
2021/06/24 04:32:41;;;;;;;2.00;1.80;;;21.10;59.60;;;;;;10416745;28;20022;-53
2021/06/24 04:37:42;;;;;;;2.35;2.15;;;21.00;59.50;;;;;;10416531;28;20095;-52
2021/06/24 04:42:43;;;;;;;2.75;2.25;;;21.10;59.60;;;;;;10416610;28;20025;-53
2021/06/24 04:47:44;;;;;;;2.50;1.98;;;21.10;59.60;;;;;;10416254;28;20481;-54
2021/06/24 04:52:45;;;;;;;3.22;2.38;;;21.10;59.50;;;;;;10416125;28;20037;-54
2021/06/24 04:57:45;;;;;;;3.50;2.60;;;21.00;59.50;;;;;;10423163;28;20474;-53
2021/06/24 05:02:46;;;;;;;2.80;2.15;;;21.10;59.60;;;;;;10414857;28;20037;-52
2021/06/24 05:07:47;;;;;;;4.05;2.72;;;21.10;59.60;;;;;;10415423;28;20033;-50
2021/06/24 05:12:48;;;;;;;2.72;2.03;;;21.00;59.50;;;;;;10415012;28;20033;-51
2021/06/24 05:17:49;;;;;;;3.17;2.38;;;21.00;59.60;;;;;;10414930;28;20036;-52
2021/06/24 05:22:50;;;;;;;3.00;2.00;;;21.00;59.60;;;;;;10415130;28;20508;-52
2021/06/24 05:27:50;;;;;;;2.88;2.33;;;21.00;59.60;;;;;;10414740;28;20104;-51
2021/06/24 05:32:51;;;;;;;3.42;2.65;;;21.00;59.60;;;;;;10414800;28;20104;-53
2021/06/24 05:37:52;;;;;;;3.78;2.22;;;21.00;59.60;;;;;;10414439;28;20450;-52
2021/06/24 05:42:53;;;;;;;2.67;2.47;;;21.00;59.60;;;;;;10414266;28;20071;-54
2021/06/24 05:47:55;;;;;;;2.75;2.40;;;21.00;59.70;;;;;;10414214;28;20068;-55
2021/06/24 05:52:56;;;;;;;3.20;2.17;;;21.00;59.70;;;;;;10413987;28;20050;-53
2021/06/24 05:57:57;;;;;;;2.78;1.98;;;21.00;59.80;;;;;;10420922;28;20135;-54
2021/06/24 06:02:57;;;;;;;2.30;2.10;;;21.00;59.70;;;;;;10413911;28;20494;-52
2021/06/24 06:07:59;;;;;;;3.28;2.72;;;21.00;59.70;;;;;;10413560;28;20060;-52
2021/06/24 06:13:00;;;;;;;4.82;2.35;;;21.00;59.70;;;;;;10413799;28;20029;-51
2021/06/24 06:18:01;;;;;;;4.03;2.13;;;21.00;59.80;;;;;;10419645;28;20083;-53
2021/06/24 06:23:01;;;;;;;3.00;2.47;;;21.00;59.70;;;;;;10421831;28;20056;-51
2021/06/24 06:28:04;;;;;;;2.10;1.90;;;21.00;59.70;;;;;;10437150;28;20121;-51
2021/06/24 06:33:04;;;;;;;2.45;1.77;;;21.00;59.80;;;;;;10421467;28;20059;-54
2021/06/24 06:38:05;;;;;;;3.70;2.17;;;21.00;59.80;;;;;;10420023;28;20055;-52
2021/06/24 06:43:06;;;;;;;3.00;1.92;;;21.00;59.80;;;;;;10420910;28;20064;-54
2021/06/24 06:48:07;;;;;;;3.50;2.65;;;21.00;59.80;;;;;;10420676;28;20500;-52
2021/06/24 06:53:08;;;;;;;2.47;1.92;;;21.00;59.70;;;;;;10420606;28;20083;-53
2021/06/24 06:58:09;;;;;;;2.85;2.22;;;21.00;59.80;;;;;;10428346;28;20030;-52
2021/06/24 07:03:10;;;;;;;4.60;2.47;;;21.00;59.70;;;;;;10420061;28;20322;-52
2021/06/24 07:08:11;;;;;;;2.60;2.15;;;21.00;59.70;;;;;;10420200;28;20034;-53
2021/06/24 07:13:12;;;;;;;3.17;2.33;;;21.00;59.70;;;;;;10419868;28;20112;-53
2021/06/24 07:18:12;;;;;;;2.63;2.42;;;21.00;59.80;;;;;;10420028;28;20021;-54
2021/06/24 07:23:13;;;;;;;2.33;1.90;;;21.00;59.70;;;;;;10419435;28;20406;-51
2021/06/24 07:28:14;;;;;;;3.90;2.30;;;21.00;59.80;;;;;;10418307;28;20033;-54
2021/06/24 07:33:19;;;;;;;2.78;2.00;;;21.00;59.80;;;;;;10419230;28;20068;-53
2021/06/24 07:38:20;;;;;;;2.40;1.90;;;21.00;59.80;;;;;;10419405;28;20545;-50
2021/06/24 07:43:21;;;;;;;2.33;2.10;;;21.10;59.80;;;;;;10419323;28;20039;-53
2021/06/24 07:48:21;;;;;;;3.53;2.20;;;21.00;59.70;;;;;;10418518;28;20046;-53
2021/06/24 07:53:22;;;;;;;3.15;2.13;;;21.00;59.70;;;;;;10418312;28;20497;-54
2021/06/24 07:58:23;;;;;;;2.88;2.20;;;21.00;59.80;;;;;;10426898;28;20421;-53
2021/06/24 08:03:23;;;;;;;2.45;2.25;;;21.10;59.80;;;;;;10417934;28;20041;-49
2021/06/24 08:08:24;;;;;;;3.10;2.30;;;21.10;59.80;;;;;;10417777;28;20033;-53
2021/06/24 08:13:27;;;;;;;2.58;1.98;;;21.00;59.70;;;;;;10417941;28;20085;-51
2021/06/24 08:18:29;;;;;;;3.22;2.30;;;21.10;59.80;;;;;;10417441;28;20030;-55
2021/06/24 08:23:30;;;;;;;2.67;2.03;;;21.10;60.40;;;;;;10417165;28;20474;-54
2021/06/24 08:28:31;;;;;;;2.90;2.38;;;21.00;59.70;;;;;;10417410;28;20041;-53
2021/06/24 08:33:32;;;;;;;4.03;2.38;;;21.00;59.70;;;;;;10416969;28;20025;-54
2021/06/24 08:38:32;;;;;;;3.38;2.92;;;21.10;59.80;;;;;;10416455;28;20113;-53
2021/06/24 08:43:33;;;;;;;2.30;2.08;;;21.00;59.70;;;;;;10425033;28;20030;-51
2021/06/24 08:48:37;;;;;;;2.55;2.13;;;21.10;59.80;;;;;;10416180;28;20047;-50
2021/06/24 08:53:39;;;;;;;2.67;1.77;;;21.10;59.80;;;;;;10401758;28;20037;-50
2021/06/24 08:58:40;;;;;;;2.80;2.10;;;21.10;59.80;;;;;;10422845;28;20033;-53
2021/06/24 09:03:41;;;;;;;3.85;2.83;;;21.10;59.80;;;;;;10415595;28;20026;-54
2021/06/24 09:08:43;;;;;;;3.00;2.65;;;21.10;59.80;;;;;;10415434;28;20098;-51
2021/06/24 09:14:02;;;;;;;2.92;2.60;;;21.10;59.80;;;;;;10415406;28;20469;-50
2021/06/24 09:19:20;;;;;;;3.83;2.25;;;21.10;59.80;;;;;;10413933;28;20124;-52
2021/06/24 09:24:46;;;;;;;2.63;2.22;;;21.10;59.70;;;;;;10413665;28;20034;-50
2021/06/24 09:30:09;;;;;;;3.28;2.50;;;21.10;59.70;;;;;;10414711;28;20091;-53
2021/06/24 09:35:24;;;;;;;2.55;2.20;;;21.10;59.80;;;;;;10414281;28;20041;-53
2021/06/24 09:40:36;;;;;;;3.97;2.17;;;21.10;59.80;;;;;;10413036;28;20029;-53
2021/06/24 09:45:37;;;;;;;4.10;2.42;;;21.10;59.80;;;;;;10414411;28;20044;-51
2021/06/24 09:50:39;;;;;;;3.53;2.90;;;21.10;59.80;;;;;;10413610;28;20125;-53
2021/06/24 09:55:40;;;;;;;3.50;2.40;;;21.10;59.90;;;;;;10413957;28;20033;-53
2021/06/24 10:00:54;;;;;;;3.40;2.45;;;21.10;59.90;;;;;;10422648;28;20486;-51
2021/06/24 10:05:55;;;;;;;3.33;2.38;;;21.10;59.90;;;;;;10414168;28;20033;-50
2021/06/24 10:10:56;;;;;;;3.30;2.33;;;21.10;59.90;;;;;;10414037;28;20025;-51
2021/06/24 10:15:57;;;;;;;3.47;2.28;;;21.10;59.80;;;;;;10413740;28;20052;-52
2021/06/24 10:20:58;;;;;;;3.17;2.72;;;21.10;59.80;;;;;;10412320;28;20037;-54
2021/06/24 10:25:59;;;;;;;5.18;2.63;;;21.10;59.80;;;;;;10412414;28;20542;-51
2021/06/24 10:31:00;;;;;;;2.83;2.47;;;21.10;59.80;;;;;;10412573;28;20087;-52
2021/06/24 10:36:13;;;;;;;4.32;2.80;;;21.10;59.80;;;;;;10413143;28;20130;-52
2021/06/24 10:41:14;;;;;;;3.10;2.10;;;21.10;59.80;;;;;;10413248;28;20069;-54
2021/06/24 10:46:18;;;;;;;2.58;2.35;;;21.10;59.90;;;;;;10413363;28;20534;-54
2021/06/24 10:51:31;;;;;;;2.70;2.10;;;21.20;59.90;;;;;;10412173;28;20133;-51
2021/06/24 10:56:43;;;;;;;4.40;2.70;;;21.10;59.80;;;;;;10413029;28;20030;-54
2021/06/24 11:01:46;;;;;;;2.72;2.17;;;21.10;59.80;;;;;;10406278;28;20032;-54
2021/06/24 11:06:51;;;;;;;4.70;2.53;;;21.10;59.80;;;;;;10420924;28;20026;-52
2021/06/24 11:11:52;;;;;;;2.72;2.20;;;21.10;59.80;;;;;;10418771;28;20026;-52
2021/06/24 11:16:53;;;;;;;3.58;3.28;;;21.20;59.90;;;;;;10419763;28;20025;-54
2021/06/24 11:21:54;;;;;;;3.92;2.42;;;21.10;59.80;;;;;;10419510;28;20121;-53
2021/06/24 11:26:58;;;;;;;3.20;2.67;;;21.10;59.90;;;;;;10420003;28;20480;-52
2021/06/24 11:32:12;;;;;;;4.88;2.60;;;21.10;60.60;;;;;;10419100;28;20108;-50
2021/06/24 11:37:17;;;;;;;5.07;2.50;;;21.20;60.00;;;;;;10419316;28;20057;-53
2021/06/24 11:42:28;;;;;;;3.47;2.30;;;21.10;59.90;;;;;;10418816;28;20091;-54
2021/06/24 11:47:32;;;;;;;4.53;2.92;;;21.20;60.00;;;;;;10418845;28;20025;-52
2021/06/24 12:03:20;;;;;;;2.47;2.15;;;21.20;60.00;;;;;;10417081;28;20474;-54
2021/06/24 12:08:24;;;;;;;2.90;2.60;;;21.20;60.00;;;;;;10417975;28;20033;-52
2021/06/24 12:13:37;;;;;;;3.33;2.58;;;21.20;60.10;;;;;;10417013;28;20033;-52
2021/06/24 12:18:46;;;;;;;3.20;2.80;;;21.20;60.00;;;;;;10417575;28;20036;-53
2021/06/24 12:23:49;;;;;;;3.10;2.60;;;21.20;60.00;;;;;;10417146;28;20064;-51
2021/06/24 12:28:50;;;;;;;4.25;2.60;;;21.20;60.00;;;;;;10416978;28;20030;-52
2021/06/24 12:34:05;;;;;;;3.13;2.65;;;21.20;60.10;;;;;;10416692;28;20029;-50
2021/06/24 12:39:05;;;;;;;3.42;2.60;;;21.20;60.10;;;;;;10416608;28;20057;-52
2021/06/24 12:44:06;;;;;;;3.25;2.70;;;21.20;60.10;;;;;;10416505;28;20104;-51
2021/06/24 12:49:17;;;;;;;3.53;3.15;;;21.20;60.10;;;;;;10416141;28;20061;-51
2021/06/24 12:54:20;;;;;;;3.22;2.60;;;21.20;60.20;;;;;;10416108;28;20104;-53
2021/06/24 12:59:27;;;;;;;3.47;2.60;;;21.20;60.20;;;;;;10424137;28;20079;-52
2021/06/24 13:04:30;;;;;;;3.55;3.03;;;21.20;60.80;;;;;;10416065;28;20037;-54
2021/06/24 13:09:36;;;;;;;3.33;2.92;;;21.20;60.20;;;;;;10415164;28;20478;-54
2021/06/24 13:14:39;;;;;;;2.53;2.33;;;21.20;60.20;;;;;;10415146;28;20102;-52
2021/06/24 13:19:55;;;;;;;4.35;2.90;;;21.20;60.20;;;;;;10415236;28;20097;-53
2021/06/24 13:25:04;;;;;;;3.08;2.75;;;21.20;60.80;;;;;;10414341;28;20025;-54
2021/06/24 13:30:13;;;;;;;2.95;2.65;;;21.20;60.20;;;;;;10415197;28;20088;-53
2021/06/24 13:35:26;;;;;;;2.87;2.30;;;21.20;60.30;;;;;;10414809;28;20036;-54
2021/06/24 13:40:30;;;;;;;3.03;2.72;;;21.20;60.30;;;;;;10414619;28;20116;-54
2021/06/24 13:45:33;;;;;;;3.35;2.88;;;21.20;60.30;;;;;;10414473;28;20429;-54
2021/06/24 13:50:34;;;;;;;3.63;2.92;;;21.20;60.40;;;;;;10414024;28;20058;-54
2021/06/24 13:55:38;;;;;;;3.17;2.65;;;21.20;60.40;;;;;;10414336;28;20084;-53
2021/06/24 14:00:39;;;;;;;3.50;3.08;;;21.20;60.70;;;;;;10421171;28;20103;-53
2021/06/24 14:05:41;;;;;;;3.47;3.17;;;21.20;60.40;;;;;;10412760;28;20022;-52
2021/06/24 14:10:41;;;;;;;3.25;2.90;;;21.20;60.40;;;;;;10413990;28;20040;-54
2021/06/24 14:15:42;;;;;;;3.10;2.80;;;21.20;60.40;;;;;;10413743;28;20473;-54
2021/06/24 14:20:43;;;;;;;3.03;2.67;;;21.10;60.40;;;;;;10413671;28;20083;-53
2021/06/24 14:25:45;;;;;;;3.25;2.85;;;21.10;60.40;;;;;;10412582;28;20469;-54
2021/06/24 14:30:46;;;;;;;3.97;2.78;;;21.10;60.40;;;;;;10413898;28;20053;-53
2021/06/24 14:35:47;;;;;;;4.60;3.22;;;21.20;60.40;;;;;;10415108;28;20064;-52
2021/06/24 14:40:47;;;;;;;3.35;2.97;;;21.20;60.40;;;;;;10419850;28;20041;-52
2021/06/24 14:45:49;;;;;;;3.45;2.90;;;21.20;60.50;;;;;;10419778;28;20021;-52
2021/06/24 14:50:51;;;;;;;3.97;2.72;;;21.10;60.40;;;;;;10420676;28;20179;-54
2021/06/24 14:55:52;;;;;;;3.80;3.13;;;21.20;60.50;;;;;;10420783;28;20389;-54
2021/06/24 15:00:53;;;;;;;5.22;3.33;;;21.10;60.50;;;;;;10427739;28;20033;-52
2021/06/24 15:05:53;;;;;;;3.55;3.08;;;21.20;60.50;;;;;;10420571;28;20036;-54
2021/06/24 15:10:54;;;;;;;4.68;2.97;;;21.10;60.40;;;;;;10420182;28;20036;-53
2021/06/24 15:15:56;;;;;;;3.58;3.28;;;21.10;60.50;;;;;;10419750;28;20120;-54
2021/06/24 15:20:57;;;;;;;3.75;3.35;;;21.20;60.50;;;;;;10419954;28;20478;-52
2021/06/24 15:25:58;;;;;;;3.55;3.03;;;21.10;60.50;;;;;;10419678;28;20160;-53
2021/06/24 15:31:02;;;;;;;3.65;3.35;;;21.20;60.50;;;;;;10418115;28;20021;-51
2021/06/24 15:36:03;;;;;;;3.63;3.25;;;21.20;60.60;;;;;;10419350;28;20045;-53
2021/06/24 15:41:03;;;;;;;4.03;3.63;;;21.20;60.60;;;;;;10418787;28;20018;-54
2021/06/24 15:46:04;;;;;;;4.00;3.60;;;21.20;60.60;;;;;;10419185;28;20033;-54
2021/06/24 15:51:05;;;;;;;4.22;3.53;;;21.20;60.60;;;;;;10404485;28;20046;-52
2021/06/24 15:56:06;;;;;;;4.20;3.78;;;21.20;60.60;;;;;;10418256;28;20029;-50
2021/06/24 16:01:07;;;;;;;3.97;3.55;;;21.20;60.60;;;;;;10426189;28;20462;-53
2021/06/24 16:06:07;;;;;;;3.50;3.20;;;21.20;60.60;;;;;;10417965;28;20052;-53
2021/06/24 16:11:08;;;;;;;4.70;3.28;;;21.20;60.60;;;;;;10417790;28;20389;-54
2021/06/24 16:16:09;;;;;;;3.53;3.22;;;21.10;60.50;;;;;;10417658;28;20030;-54
2021/06/24 16:21:10;;;;;;;3.70;3.13;;;21.20;60.70;;;;;;10416294;28;20034;-53
2021/06/24 16:26:11;;;;;;;4.15;3.78;;;21.20;60.60;;;;;;10417198;28;20036;-54
2021/06/24 16:31:12;;;;;;;4.07;3.67;;;21.20;60.70;;;;;;10416891;28;20493;-52
2021/06/24 16:36:12;;;;;;;3.25;2.95;;;21.20;60.70;;;;;;10417323;28;20071;-51
2021/06/24 16:41:13;;;;;;;4.40;3.30;;;21.20;60.60;;;;;;10416660;28;20037;-52
2021/06/24 16:46:14;;;;;;;3.75;3.40;;;21.20;60.70;;;;;;10416184;28;20075;-54
2021/06/24 16:51:15;;;;;;;3.92;3.45;;;21.20;60.70;;;;;;10415989;28;20124;-54
2021/06/24 16:56:15;;;;;;;4.00;3.20;;;21.20;60.60;;;;;;10416207;28;20030;-54
2021/06/24 17:01:16;;;;;;;3.85;3.20;;;21.20;60.70;;;;;;10424398;28;20037;-54
2021/06/24 17:06:17;;;;;;;4.97;3.75;;;21.20;60.60;;;;;;10415534;28;20112;-54
2021/06/24 17:11:18;;;;;;;4.18;3.78;;;21.20;60.70;;;;;;10414525;28;20394;-53
2021/06/24 17:16:19;;;;;;;4.10;3.70;;;21.20;60.70;;;;;;10414175;28;20359;-52
2021/06/24 17:21:21;;;;;;;4.60;3.78;;;21.20;60.70;;;;;;10414891;28;20041;-54
2021/06/24 17:26:22;;;;;;;3.63;3.33;;;21.20;60.70;;;;;;10415094;28;20026;-54
2021/06/24 17:31:22;;;;;;;3.90;3.47;;;21.20;60.70;;;;;;10414837;28;20063;-53
2021/06/24 17:36:23;;;;;;;3.78;3.38;;;21.20;60.60;;;;;;10415142;28;20112;-54
2021/06/24 17:41:24;;;;;;;4.60;3.30;;;21.20;60.70;;;;;;10414410;28;20381;-55
2021/06/24 17:46:24;;;;;;;4.40;3.95;;;21.20;60.70;;;;;;10414410;28;20367;-55
2021/06/24 17:51:26;;;;;;;4.82;3.50;;;21.20;60.70;;;;;;10414054;28;20418;-54
2021/06/24 17:56:26;;;;;;;4.18;3.30;;;21.20;60.60;;;;;;10413086;28;20033;-55
2021/06/24 18:01:28;;;;;;;4.55;4.00;;;21.20;60.70;;;;;;10422693;28;20050;-55
2021/06/24 18:06:29;;;;;;;3.25;2.95;;;21.20;60.70;;;;;;10413851;28;20083;-53
2021/06/24 18:11:29;;;;;;;4.80;4.10;;;21.20;60.70;;;;;;10417096;28;20063;-54
2021/06/24 18:16:30;;;;;;;4.85;3.63;;;21.20;60.70;;;;;;10422408;28;20025;-54
2021/06/24 18:21:31;;;;;;;3.72;3.33;;;21.20;60.70;;;;;;10421911;28;20040;-53
2021/06/24 18:26:32;;;;;;;4.45;3.63;;;21.20;60.70;;;;;;10421932;28;20036;-53
2021/06/24 18:31:33;;;;;;;3.33;3.03;;;21.20;60.60;;;;;;10421705;28;20108;-53
2021/06/24 18:36:34;;;;;;;3.85;3.42;;;21.20;60.70;;;;;;10421467;28;20041;-54
2021/06/24 18:41:35;;;;;;;4.03;3.63;;;21.20;60.60;;;;;;10421518;28;20033;-54
2021/06/24 18:46:35;;;;;;;3.25;2.95;;;21.20;60.60;;;;;;10421136;28;20409;-56
2021/06/24 18:51:36;;;;;;;4.53;3.80;;;21.20;60.70;;;;;;10420898;28;20101;-54
2021/06/24 18:56:37;;;;;;;3.83;3.45;;;21.20;60.70;;;;;;10421396;28;20553;-55
2021/06/24 19:01:39;;;;;;;4.07;3.70;;;21.20;60.70;;;;;;10428759;28;20033;-53
2021/06/24 19:06:40;;;;;;;3.97;3.58;;;21.20;60.70;;;;;;10420265;28;20017;-53
2021/06/24 19:11:41;;;;;;;4.00;3.53;;;21.20;60.70;;;;;;10420330;28;20420;-55
2021/06/24 19:16:41;;;;;;;4.43;4.00;;;21.20;60.70;;;;;;10419991;28;20030;-56
2021/06/24 19:21:42;;;;;;;3.83;3.30;;;21.20;60.60;;;;;;10418817;28;20109;-54
2021/06/24 19:26:43;;;;;;;4.72;3.70;;;21.20;60.60;;;;;;10419625;28;20109;-55
2021/06/24 19:31:44;;;;;;;4.28;3.88;;;21.10;60.50;;;;;;10419326;28;20028;-54
2021/06/24 19:36:45;;;;;;;4.63;3.95;;;21.20;60.70;;;;;;10419716;28;20033;-55
2021/06/24 19:41:46;;;;;;;4.07;3.50;;;21.20;60.70;;;;;;10419174;28;20022;-55
2021/06/24 19:46:46;;;;;;;4.60;3.92;;;21.10;60.60;;;;;;10418772;28;20029;-55
2021/06/24 19:51:48;;;;;;;6.22;4.57;;;21.20;60.70;;;;;;10418537;28;20049;-55
2021/06/24 19:56:49;;;;;;;3.58;3.22;;;21.10;60.60;;;;;;10420614;28;20033;-54
2021/06/24 20:01:50;;;;;;;4.18;3.78;;;21.10;60.60;;;;;;10424318;28;20072;-54
2021/06/24 20:06:51;;;;;;;3.97;3.40;;;21.10;60.60;;;;;;10418144;28;20057;-54
2021/06/24 20:11:51;;;;;;;3.83;3.40;;;21.20;60.70;;;;;;10416477;28;20365;-53
2021/06/24 20:16:53;;;;;;;5.03;4.22;;;21.20;60.70;;;;;;10416266;28;20355;-53
2021/06/24 20:21:53;;;;;;;5.10;4.07;;;21.10;60.60;;;;;;10417505;28;20029;-52
2021/06/24 20:26:54;;;;;;;4.32;3.80;;;21.10;60.70;;;;;;10417122;28;20026;-53
2021/06/24 20:31:54;;;;;;;4.30;3.90;;;21.10;60.60;;;;;;10416892;28;20064;-53
2021/06/24 20:36:55;;;;;;;4.30;3.90;;;21.10;60.70;;;;;;10416084;28;20081;-53
2021/06/24 20:41:56;;;;;;;4.00;3.60;;;21.20;60.70;;;;;;10414727;28;20033;-53
2021/06/24 20:46:57;;;;;;;4.28;3.88;;;21.10;60.70;;;;;;10416025;28;20430;-52
2021/06/24 20:51:57;;;;;;;4.50;4.10;;;21.10;60.70;;;;;;10415282;28;20135;-52
2021/06/24 20:56:58;;;;;;;3.83;3.33;;;21.10;60.70;;;;;;10418369;28;20024;-53
2021/06/24 21:01:59;;;;;;;4.00;3.70;;;21.10;60.70;;;;;;10420366;28;20029;-50
2021/06/24 21:06:59;;;;;;;3.90;3.50;;;21.10;60.60;;;;;;10415179;28;20163;-52
2021/06/24 21:12:00;;;;;;;4.50;4.10;;;21.10;60.70;;;;;;10430469;28;20041;-52
2021/06/24 21:17:01;;;;;;;3.90;3.53;;;21.10;60.70;;;;;;10415273;28;20037;-53
2021/06/24 21:22:02;;;;;;;4.55;3.90;;;21.10;60.70;;;;;;10414678;28;20108;-51
2021/06/24 21:27:03;;;;;;;3.83;3.40;;;21.10;60.70;;;;;;10414713;28;20037;-52
2021/06/24 21:32:04;;;;;;;4.28;3.67;;;21.10;60.70;;;;;;10414376;28;20068;-49
2021/06/24 21:37:05;;;;;;;3.65;3.33;;;21.10;60.60;;;;;;10414516;28;20033;-50
2021/06/24 21:42:06;;;;;;;3.95;3.58;;;21.10;60.60;;;;;;10429373;28;20061;-51
2021/06/24 21:47:07;;;;;;;4.25;3.33;;;21.10;60.60;;;;;;10413256;28;20450;-49
2021/06/24 21:52:08;;;;;;;3.58;3.15;;;21.10;60.60;;;;;;10413677;28;20049;-55
2021/06/24 21:57:09;;;;;;;3.28;2.97;;;21.10;60.60;;;;;;10419321;28;20116;-51
2021/06/24 22:02:10;;;;;;;4.95;4.30;;;21.10;60.60;;;;;;10416700;28;20108;-55
2021/06/24 22:07:11;;;;;;;3.40;2.97;;;21.10;60.80;;;;;;10413489;28;20160;-54
2021/06/24 22:12:11;;;;;;;4.03;3.63;;;21.10;60.90;;;;;;10413239;28;20104;-55
2021/06/24 22:17:12;;;;;;;3.75;3.40;;;21.10;60.80;;;;;;10413448;28;20033;-53
2021/06/24 22:22:13;;;;;;;3.90;3.40;;;21.10;60.80;;;;;;10413186;28;20480;-52
2021/06/24 22:27:13;;;;;;;4.63;4.07;;;21.10;60.90;;;;;;10413188;28;20426;-51
2021/06/24 22:32:14;;;;;;;3.55;3.25;;;21.10;60.80;;;;;;10413485;28;20025;-51
2021/06/24 22:37:15;;;;;;;3.80;3.33;;;21.10;60.80;;;;;;10412924;28;20029;-54
2021/06/24 22:42:15;;;;;;;3.63;3.33;;;21.10;60.80;;;;;;10412860;28;20033;-52
2021/06/24 22:47:16;;;;;;;3.42;3.13;;;21.10;60.80;;;;;;10412278;28;20022;-50
2021/06/24 22:52:17;;;;;;;4.00;3.70;;;21.10;60.80;;;;;;10412348;28;20065;-53
2021/06/24 22:57:17;;;;;;;3.45;3.15;;;21.10;60.80;;;;;;10421305;28;20035;-53
2021/06/24 23:02:18;;;;;;;3.50;3.20;;;21.00;60.80;;;;;;10425180;28;20151;-53
2021/06/24 23:07:19;;;;;;;3.30;3.00;;;21.10;60.70;;;;;;10419866;28;20060;-53
2021/06/24 23:12:20;;;;;;;4.30;3.17;;;21.00;60.50;;;;;;10419738;28;20100;-53
2021/06/24 23:17:20;;;;;;;3.28;2.97;;;21.00;60.50;;;;;;10419373;28;20030;-53
2021/06/24 23:22:21;;;;;;;3.30;3.00;;;21.00;60.50;;;;;;10420001;28;20037;-53
2021/06/24 23:27:22;;;;;;;3.80;3.40;;;21.00;60.40;;;;;;10419143;28;20025;-55
2021/06/24 23:32:22;;;;;;;3.55;3.25;;;21.00;60.40;;;;;;10418953;28;20029;-53
2021/06/24 23:37:23;;;;;;;3.40;3.10;;;21.00;60.40;;;;;;10419307;28;20083;-53
2021/06/24 23:42:26;;;;;;;4.45;3.20;;;21.00;60.30;;;;;;10418498;28;20076;-53
2021/06/24 23:47:26;;;;;;;3.80;3.40;;;21.00;60.30;;;;;;10418914;28;20029;-52
2021/06/24 23:52:27;;;;;;;3.78;3.38;;;21.00;60.30;;;;;;10404789;28;20133;-54
2021/06/24 23:57:28;;;;;;;4.90;3.40;;;21.00;60.20;;;;;;10425862;28;20032;-53
